Time;durP1;ratioP1;P1;durP2;ratioP2;P2;SDS_P1;SDS_P2;PMS_P1;PMS_P2;Temp;Humidity;BMP_temperature;BMP_pressure;BME280_temperature;BME280_humidity;BME280_pressure;Samples;Min_cycle;Max_cycle;Signal;HPM_P1;HPM_P2
2022/09/13 00:01:37;;;;;;;3.20;2.80;;;13.10;99.90;14.30;96799.00;;;;4975349;28;20210;-88
2022/09/13 00:04:25;;;;;;;3.50;3.20;;;13.10;99.90;14.30;96804.00;;;;4974413;28;20670;-88
2022/09/13 00:07:14;;;;;;;4.60;3.27;;;13.10;99.90;14.30;96807.00;;;;4973102;28;20226;-88
2022/09/13 00:10:04;;;;;;;3.57;3.23;;;13.10;99.90;14.30;96794.00;;;;4974498;28;20355;-86
2022/09/13 00:12:53;;;;;;;4.67;2.97;;;13.10;99.90;14.30;96795.00;;;;4989589;28;20627;-85
2022/09/13 00:15:44;;;;;;;5.17;3.33;;;13.00;99.90;14.20;96790.00;;;;4988838;28;20210;-87
2022/09/13 00:18:35;;;;;;;3.80;2.83;;;13.00;99.90;14.10;96783.00;;;;4989405;28;20237;-87
2022/09/13 00:21:25;;;;;;;4.77;2.97;;;13.00;99.90;14.10;96792.00;;;;4983922;28;20210;-87
2022/09/13 00:24:13;;;;;;;3.00;2.70;;;13.00;99.90;13.90;96778.00;;;;4979834;28;21149;-88
2022/09/13 00:27:02;;;;;;;11.40;3.67;;;12.90;99.90;13.60;96783.00;;;;4988956;28;20233;-87
2022/09/13 00:29:51;;;;;;;3.13;2.50;;;12.80;99.90;13.50;96776.00;;;;4981500;28;20224;-88
2022/09/13 00:32:40;;;;;;;3.30;3.00;;;12.70;99.90;13.70;96765.00;;;;4981496;28;20229;-88
2022/09/13 00:35:30;;;;;;;5.60;3.47;;;12.60;99.90;13.70;96775.00;;;;4999902;28;20578;-86
2022/09/13 00:38:19;;;;;;;3.43;3.13;;;12.60;99.90;13.60;96766.00;;;;4989661;28;20259;-87
2022/09/13 00:41:12;;;;;;;3.80;3.23;;;12.50;99.90;13.50;96769.00;;;;4974718;28;20286;-87
2022/09/13 00:44:02;;;;;;;3.50;3.20;;;12.50;99.90;13.30;96770.00;;;;4991215;28;20663;-88
2022/09/13 00:46:52;;;;;;;3.20;2.90;;;12.50;99.90;13.20;96761.00;;;;4998759;28;20192;-87
2022/09/13 00:49:43;;;;;;;3.53;3.03;;;12.30;99.90;13.30;96770.00;;;;4988459;28;20199;-87
2022/09/13 00:52:36;;;;;;;6.97;3.40;;;12.30;99.90;13.40;96763.00;;;;4989134;28;20222;-87
2022/09/13 00:55:30;;;;;;;4.43;3.37;;;12.20;99.90;13.40;96767.00;;;;4973916;28;20695;-87
2022/09/13 00:58:24;;;;;;;5.00;3.37;;;12.20;99.90;13.20;96756.00;;;;4980186;28;20234;-88
2022/09/13 01:01:16;;;;;;;3.77;3.40;;;12.20;99.90;13.00;96753.00;;;;4972267;28;20219;-87
2022/09/13 01:04:05;;;;;;;4.00;3.60;;;12.10;99.90;13.10;96747.00;;;;4987376;28;20191;-87
2022/09/13 01:07:02;;;;;;;3.80;3.27;;;12.10;99.90;13.20;96747.00;;;;4988267;28;20194;-89
2022/09/13 01:09:53;;;;;;;3.40;3.10;;;12.10;99.90;13.20;96747.00;;;;4988689;28;20270;-88
2022/09/13 01:12:49;;;;;;;4.17;3.30;;;12.00;99.90;13.20;96749.00;;;;4986449;28;20219;-89
2022/09/13 01:15:38;;;;;;;5.03;3.27;;;12.00;99.90;12.90;96745.00;;;;4988402;28;20199;-88
2022/09/13 01:18:27;;;;;;;3.10;2.80;;;12.00;99.90;12.60;96740.00;;;;4987330;28;20266;-87
2022/09/13 01:22:13;;;;;;;3.70;3.07;;;12.10;99.90;12.60;96742.00;;;;4979770;28;20195;-88
2022/09/13 01:25:38;;;;;;;3.90;3.50;;;11.80;99.90;12.50;96733.00;;;;4990013;28;20198;-87
2022/09/13 01:29:23;;;;;;;4.43;3.50;;;11.70;99.90;12.60;96731.00;;;;4985169;28;20227;-88
2022/09/13 01:32:24;;;;;;;3.23;3.03;;;11.60;99.90;12.30;96722.00;;;;4973125;28;20278;-86
2022/09/13 01:35:23;;;;;;;3.87;3.57;;;11.50;99.90;12.30;96723.00;;;;4974556;28;20230;-86
2022/09/13 01:38:32;;;;;;;3.37;3.07;;;11.50;99.90;12.50;96719.00;;;;4986693;28;20222;-88
2022/09/13 01:41:48;;;;;;;3.97;3.53;;;11.40;99.90;12.50;96715.00;;;;4988829;28;20198;-87
2022/09/13 01:45:03;;;;;;;3.43;2.83;;;11.40;99.90;12.40;96714.00;;;;4977553;28;20206;-87
2022/09/13 01:47:59;;;;;;;20.63;3.77;;;11.40;99.90;12.10;96711.00;;;;4988821;28;20233;-87
2022/09/13 01:50:59;;;;;;;3.80;3.37;;;11.30;99.90;12.30;96707.00;;;;4979841;28;20293;-88
2022/09/13 01:53:55;;;;;;;7.87;3.30;;;11.30;99.90;12.50;96702.00;;;;5000440;28;20202;-87
2022/09/13 01:56:54;;;;;;;5.77;4.00;;;11.30;99.90;12.50;96705.00;;;;4990738;28;20202;-87
2022/09/13 01:59:50;;;;;;;3.97;3.47;;;11.30;99.90;12.60;96692.00;;;;4988297;28;20201;-87
2022/09/13 02:02:42;;;;;;;3.97;3.30;;;11.30;99.90;12.60;96702.00;;;;4993059;28;20213;-87
2022/09/13 02:05:39;;;;;;;4.47;3.37;;;11.30;99.90;12.60;96692.00;;;;4986607;28;20218;-87
2022/09/13 02:08:36;;;;;;;3.87;3.47;;;11.30;99.90;12.40;96695.00;;;;4981852;28;20651;-87
2022/09/13 02:11:26;;;;;;;4.90;3.70;;;11.30;99.90;12.30;96693.00;;;;4986810;28;20229;-87
2022/09/13 02:14:19;;;;;;;4.70;3.77;;;11.30;99.90;12.40;96695.00;;;;4986207;28;20344;-86
2022/09/13 02:17:12;;;;;;;6.17;3.13;;;11.30;99.90;12.10;96683.00;;;;4993283;28;20195;-87
2022/09/13 02:20:04;;;;;;;4.23;3.63;;;11.20;99.90;12.00;96681.00;;;;4990070;28;20195;-86
2022/09/13 02:22:57;;;;;;;3.23;2.93;;;12.10;99.90;11.70;96690.00;;;;4982466;28;20203;-86
2022/09/13 02:25:49;;;;;;;3.57;3.27;;;11.00;99.90;11.60;96687.00;;;;4987196;28;20205;-86
2022/09/13 02:28:44;;;;;;;5.10;3.80;;;10.90;99.90;11.60;96693.00;;;;4983233;28;20224;-85
2022/09/13 02:31:38;;;;;;;4.37;3.70;;;10.80;99.90;11.70;96689.00;;;;4996243;28;20228;-86
2022/09/13 02:34:33;;;;;;;4.87;3.67;;;10.80;99.90;11.80;96680.00;;;;4977303;28;20207;-86
2022/09/13 02:37:25;;;;;;;4.13;3.70;;;10.70;99.90;11.80;96678.00;;;;4971295;28;20614;-86
2022/09/13 02:40:22;;;;;;;3.57;3.03;;;10.80;99.90;11.50;96671.00;;;;4977929;28;20191;-85
2022/09/13 02:43:17;;;;;;;4.20;3.60;;;10.70;99.90;11.40;96668.00;;;;4987434;28;20852;-86
2022/09/13 02:46:17;;;;;;;3.90;3.60;;;10.60;99.90;11.60;96680.00;;;;4989358;28;20209;-87
2022/09/13 02:49:17;;;;;;;7.00;3.87;;;10.60;99.90;11.70;96664.00;;;;4994532;28;20643;-87
2022/09/13 02:52:17;;;;;;;5.87;3.43;;;10.60;99.90;11.70;96676.00;;;;4987561;28;20249;-86
2022/09/13 02:55:18;;;;;;;3.50;3.20;;;10.60;99.90;11.70;96672.00;;;;4987948;28;20249;-87
2022/09/13 02:58:13;;;;;;;3.57;3.17;;;10.60;99.90;11.70;96667.00;;;;4988068;28;20218;-88
2022/09/13 03:01:02;;;;;;;4.87;3.27;;;10.60;99.90;11.70;96667.00;;;;4981605;28;20552;-87
2022/09/13 03:03:53;;;;;;;3.73;3.40;;;10.60;99.90;11.70;96658.00;;;;4972566;28;20195;-88
2022/09/13 03:06:42;;;;;;;3.60;3.30;;;10.60;99.90;11.40;96654.00;;;;4972861;28;20203;-87
2022/09/13 03:09:31;;;;;;;5.97;3.97;;;10.60;99.90;11.40;96658.00;;;;4971818;28;20234;-88
2022/09/13 03:12:44;;;;;;;4.60;3.77;;;10.50;99.90;11.60;96656.00;;;;4979597;28;20608;-86
2022/09/13 03:15:46;;;;;;;4.27;3.97;;;10.50;99.90;11.70;96662.00;;;;4973181;28;20272;-87
2022/09/13 03:18:51;;;;;;;4.07;3.27;;;10.50;99.90;11.60;96672.00;;;;4986940;28;20258;-87
2022/09/13 03:22:02;;;;;;;4.13;3.43;;;10.50;99.90;11.40;96667.00;;;;4985252;28;20191;-86
2022/09/13 03:25:03;;;;;;;3.97;3.63;;;10.50;99.90;11.30;96669.00;;;;4985980;28;20195;-85
2022/09/13 03:28:01;;;;;;;3.30;2.97;;;10.40;99.90;11.20;96663.00;;;;4983793;28;20282;-87
2022/09/13 03:30:57;;;;;;;3.83;3.20;;;10.30;99.90;11.20;96665.00;;;;4972649;28;20230;-86
2022/09/13 03:33:54;;;;;;;4.37;3.97;;;10.20;99.90;11.20;96652.00;;;;4984283;28;20634;-87
2022/09/13 03:36:47;;;;;;;4.50;3.97;;;10.20;99.90;11.30;96651.00;;;;4971929;28;20202;-87
2022/09/13 03:39:42;;;;;;;5.17;3.43;;;10.20;99.90;11.30;96655.00;;;;4973081;28;20218;-87
2022/09/13 03:42:39;;;;;;;3.73;3.43;;;10.20;99.90;11.10;96651.00;;;;4990231;28;20669;-86
2022/09/13 03:45:36;;;;;;;4.23;3.37;;;10.20;99.90;10.80;96656.00;;;;4975973;28;20289;-87
2022/09/13 03:48:26;;;;;;;3.93;3.30;;;10.10;99.90;10.60;96658.00;;;;4989394;28;20705;-87
2022/09/13 03:51:15;;;;;;;5.33;3.93;;;10.00;99.90;10.60;96655.00;;;;4982027;28;20195;-88
2022/09/13 03:54:08;;;;;;;5.60;4.23;;;9.90;99.90;10.90;96653.00;;;;4989598;28;20222;-88
2022/09/13 03:57:11;;;;;;;4.93;3.97;;;9.90;99.90;11.00;96649.00;;;;4991105;28;20195;-88
2022/09/13 04:00:00;;;;;;;4.50;3.77;;;10.00;99.90;11.00;96660.00;;;;4991788;28;20206;-87
2022/09/13 04:02:51;;;;;;;3.73;3.37;;;9.90;99.90;10.90;96660.00;;;;4987155;28;20712;-87
2022/09/13 04:05:39;;;;;;;6.13;3.93;;;10.00;99.90;11.00;96657.00;;;;4989620;28;20210;-88
2022/09/13 04:08:28;;;;;;;8.10;4.10;;;9.90;99.90;10.90;96650.00;;;;5001101;28;20218;-87
2022/09/13 04:11:17;;;;;;;5.57;3.57;;;9.90;99.90;11.10;96648.00;;;;4992210;28;20614;-87
2022/09/13 04:14:05;;;;;;;3.70;3.30;;;9.90;99.90;11.10;96653.00;;;;4996398;28;20222;-87
2022/09/13 04:16:55;;;;;;;5.27;3.70;;;9.90;99.90;10.90;96659.00;;;;5006235;28;20242;-87
2022/09/13 04:19:46;;;;;;;4.17;3.50;;;9.90;99.90;10.40;96663.00;;;;4989873;28;20202;-87
2022/09/13 04:22:34;;;;;;;3.90;3.00;;;9.80;99.90;10.40;96655.00;;;;4983399;28;20207;-87
2022/09/13 04:25:24;;;;;;;4.27;3.87;;;9.70;99.90;10.70;96656.00;;;;4989421;28;20219;-88
2022/09/13 04:28:13;;;;;;;4.87;3.90;;;9.70;99.90;10.90;96654.00;;;;4986857;28;20301;-88
2022/09/13 04:31:02;;;;;;;6.13;4.40;;;9.70;99.90;10.80;96657.00;;;;4972757;28;20605;-87
2022/09/13 04:33:50;;;;;;;4.50;4.10;;;9.70;99.90;10.90;96661.00;;;;4988343;28;20227;-87
2022/09/13 04:36:41;;;;;;;6.53;4.17;;;9.80;99.90;10.60;96655.00;;;;4981393;28;20207;-88
2022/09/13 04:39:29;;;;;;;4.40;3.60;;;9.80;99.90;10.50;96652.00;;;;4987072;28;20218;-86
2022/09/13 04:42:19;;;;;;;4.03;3.63;;;9.70;99.90;10.60;96654.00;;;;4993979;28;20571;-87
2022/09/13 04:45:09;;;;;;;3.80;3.50;;;9.70;99.90;10.50;96651.00;;;;4990779;28;20210;-87
2022/09/13 04:47:58;;;;;;;5.17;4.00;;;9.70;99.90;10.40;96647.00;;;;4988865;28;20694;-86
2022/09/13 04:50:47;;;;;;;6.97;4.40;;;9.70;99.90;10.60;96642.00;;;;4990771;28;20258;-87
2022/09/13 04:53:38;;;;;;;4.23;3.83;;;9.60;99.90;10.60;96640.00;;;;4984811;28;20246;-86
2022/09/13 04:56:27;;;;;;;5.37;4.60;;;9.60;99.90;10.70;96643.00;;;;4989573;28;20214;-87
2022/09/13 04:59:16;;;;;;;4.93;4.40;;;9.60;99.90;10.80;96651.00;;;;4988954;28;20233;-86
2022/09/13 05:02:05;;;;;;;4.97;4.47;;;9.70;99.90;11.00;96649.00;;;;4987753;28;20567;-87
2022/09/13 05:04:53;;;;;;;5.83;4.40;;;9.80;99.90;10.50;96641.00;;;;5001164;28;20217;-87
2022/09/13 05:07:42;;;;;;;4.80;3.80;;;9.80;99.90;10.30;96649.00;;;;4985374;28;20328;-87
2022/09/13 05:10:32;;;;;;;6.00;3.63;;;9.60;99.90;10.20;96651.00;;;;4983405;28;20219;-87
2022/09/13 05:13:21;;;;;;;5.40;4.00;;;9.60;99.90;10.30;96646.00;;;;4979905;28;20230;-87
2022/09/13 05:16:10;;;;;;;4.30;3.90;;;9.50;99.90;10.20;96640.00;;;;4984731;28;20205;-88
2022/09/13 05:18:58;;;;;;;4.57;4.00;;;9.50;99.90;10.40;96653.00;;;;4986396;28;20729;-87
2022/09/13 05:21:48;;;;;;;5.07;3.87;;;9.50;99.90;10.40;96642.00;;;;4982305;28;20207;-87
2022/09/13 05:24:37;;;;;;;4.13;3.67;;;9.50;99.90;10.70;96647.00;;;;4985729;28;20203;-87
2022/09/13 05:27:27;;;;;;;4.97;4.20;;;9.60;99.90;10.80;96652.00;;;;4983433;28;20211;-87
2022/09/13 05:30:16;;;;;;;5.47;4.57;;;9.70;99.90;10.80;96656.00;;;;4982393;28;20246;-87
2022/09/13 05:33:05;;;;;;;7.20;5.37;;;9.80;99.90;11.00;96653.00;;;;4992212;28;20218;-87
2022/09/13 05:35:54;;;;;;;4.03;3.67;;;9.90;99.90;11.00;96649.00;;;;4987738;28;20209;-87
2022/09/13 05:38:43;;;;;;;5.73;3.90;;;10.00;99.90;11.10;96642.00;;;;4988564;28;20222;-88
2022/09/13 05:41:31;;;;;;;4.93;3.73;;;10.00;99.90;11.10;96647.00;;;;4984191;28;20984;-87
2022/09/13 05:44:22;;;;;;;4.63;4.23;;;10.10;99.90;11.20;96641.00;;;;4983816;28;20990;-87
2022/09/13 05:47:13;;;;;;;7.23;4.67;;;10.20;99.90;11.40;96637.00;;;;4989752;28;20207;-87
2022/09/13 05:50:01;;;;;;;8.10;4.93;;;10.20;99.90;11.50;96640.00;;;;4985119;28;20571;-86
2022/09/13 05:52:58;;;;;;;4.20;3.80;;;10.30;99.90;11.40;96634.00;;;;4990813;28;20195;-87
2022/09/13 05:55:47;;;;;;;5.10;4.40;;;10.40;99.90;11.30;96627.00;;;;4989992;28;20195;-87
2022/09/13 05:58:40;;;;;;;4.40;3.97;;;10.40;99.90;11.20;96638.00;;;;4978930;28;20250;-88
2022/09/13 06:01:30;;;;;;;5.10;4.10;;;10.40;99.90;11.40;96629.00;;;;4986762;28;20201;-88
2022/09/13 06:04:19;;;;;;;4.43;4.00;;;10.40;99.90;11.60;96623.00;;;;4983150;28;20207;-86
2022/09/13 06:07:11;;;;;;;9.37;4.17;;;10.70;99.90;11.60;96620.00;;;;4978442;28;20669;-87
2022/09/13 06:09:59;;;;;;;5.07;4.30;;;10.60;99.90;11.70;96620.00;;;;4982784;28;20194;-87
2022/09/13 06:12:51;;;;;;;7.83;5.33;;;10.60;99.90;11.90;96609.00;;;;4988981;28;20296;-87
2022/09/13 06:15:39;;;;;;;8.93;6.23;;;10.80;99.90;12.20;96614.00;;;;4981292;28;20616;-87
2022/09/13 06:18:32;;;;;;;10.43;5.60;;;10.90;99.90;12.40;96611.00;;;;4982313;28;20618;-86
2022/09/13 06:21:23;;;;;;;6.87;4.93;;;11.10;99.90;12.40;96603.00;;;;4982133;28;20210;-87
2022/09/13 06:24:14;;;;;;;6.40;4.80;;;11.20;99.90;12.40;96619.00;;;;4987890;28;20278;-87
2022/09/13 06:27:04;;;;;;;7.13;5.53;;;11.30;99.90;12.70;96628.00;;;;4989942;28;20261;-86
2022/09/13 06:29:54;;;;;;;13.77;5.73;;;11.50;99.90;12.80;96612.00;;;;4976117;28;20745;-88
2022/09/13 06:32:42;;;;;;;6.73;4.93;;;11.70;99.90;13.10;96625.00;;;;4984714;28;20207;-87
2022/09/13 06:35:32;;;;;;;7.63;5.20;;;11.70;99.90;13.10;96623.00;;;;4990637;28;20226;-86
2022/09/13 06:38:21;;;;;;;6.67;4.40;;;11.80;99.90;13.10;96620.00;;;;4989994;28;20285;-87
2022/09/13 06:41:12;;;;;;;6.20;5.60;;;11.90;99.90;13.40;96616.00;;;;4992238;28;20209;-87
2022/09/13 06:44:02;;;;;;;6.60;5.30;;;12.00;99.90;13.70;96597.00;;;;4998599;28;20210;-88
2022/09/13 06:46:51;;;;;;;6.53;5.87;;;12.20;99.90;14.20;96596.00;;;;5005509;28;20209;-87
2022/09/13 06:49:40;;;;;;;7.33;5.20;;;12.40;99.90;14.20;96601.00;;;;4977659;28;20297;-88
2022/09/13 06:52:30;;;;;;;6.87;5.87;;;12.60;99.90;14.70;96603.00;;;;5016647;23;20817;-68
2022/09/13 06:55:18;;;;;;;4.80;4.30;;;12.90;99.90;14.90;96599.00;;;;4989446;28;20650;-70
2022/09/13 06:58:07;;;;;;;6.07;4.10;;;13.10;99.90;15.20;96596.00;;;;4989414;28;20206;-70
2022/09/13 07:01:11;;;;;;;5.03;4.50;;;13.30;99.90;15.30;96597.00;;;;4989448;28;20222;-69
2022/09/13 07:04:02;;;;;;;12.07;5.70;;;13.50;99.90;15.30;96600.00;;;;5004331;28;20204;-69
2022/09/13 07:06:51;;;;;;;6.63;4.70;;;13.70;99.90;15.50;96602.00;;;;4994665;28;20696;-70
2022/09/13 07:09:43;;;;;;;6.50;4.90;;;13.80;99.90;15.60;96603.00;;;;4990460;28;20674;-70
2022/09/13 07:12:31;;;;;;;6.97;4.73;;;13.90;99.90;15.90;96598.00;;;;4999197;28;20754;-69
2022/09/13 07:15:20;;;;;;;7.00;4.57;;;14.10;99.90;16.00;96593.00;;;;5008872;28;20272;-69
2022/09/13 07:18:09;;;;;;;10.50;4.90;;;14.30;99.90;16.30;96605.00;;;;5012222;28;20198;-69
2022/09/13 07:21:02;;;;;;;6.07;4.80;;;14.50;99.90;16.50;96605.00;;;;5027794;28;20201;-69
2022/09/13 07:23:52;;;;;;;8.93;3.90;;;14.70;99.90;16.60;96606.00;;;;4998613;28;20289;-69
2022/09/13 07:26:43;;;;;;;8.50;3.87;;;14.90;99.90;16.70;96607.00;;;;5005859;28;20679;-69
2022/09/13 07:29:31;;;;;;;12.27;3.80;;;15.00;99.90;17.00;96621.00;;;;5002048;28;20202;-69
2022/09/13 07:32:21;;;;;;;7.87;4.57;;;15.20;99.90;17.10;96617.00;;;;5003348;28;20194;-70
2022/09/13 07:35:10;;;;;;;8.27;4.23;;;15.40;99.90;17.40;96609.00;;;;5015755;28;20304;-70
2022/09/13 07:37:59;;;;;;;6.37;4.17;;;15.50;99.90;17.40;96620.00;;;;5014640;28;20689;-69
2022/09/13 07:40:54;;;;;;;6.20;4.10;;;15.70;99.90;17.80;96629.00;;;;5012117;28;20198;-69
2022/09/13 07:43:45;;;;;;;6.43;4.13;;;15.90;99.90;17.80;96638.00;;;;5016920;28;20688;-70
2022/09/13 07:46:38;;;;;;;7.33;3.97;;;16.00;99.90;18.10;96641.00;;;;5025867;22;20242;-68
2022/09/13 07:49:27;;;;;;;4.97;3.40;;;16.20;99.90;18.30;96628.00;;;;5009799;28;20279;-68
2022/09/13 07:52:15;;;;;;;5.97;3.97;;;16.40;99.90;18.40;96625.00;;;;5005930;28;20206;-68
2022/09/13 07:55:05;;;;;;;4.73;3.83;;;16.50;99.90;18.50;96637.00;;;;5007108;28;20230;-69
2022/09/13 07:57:54;;;;;;;4.97;3.57;;;16.70;99.90;18.70;96624.00;;;;5012457;28;20210;-68
2022/09/13 08:00:44;;;;;;;7.43;4.20;;;16.80;99.90;18.90;96625.00;;;;5013636;28;20280;-69
2022/09/13 08:03:33;;;;;;;4.77;3.23;;;17.00;99.90;19.00;96624.00;;;;5010574;28;20197;-69
2022/09/13 08:06:23;;;;;;;9.90;3.90;;;17.10;99.90;19.20;96616.00;;;;5011499;28;20229;-68
2022/09/13 08:09:12;;;;;;;5.50;3.50;;;17.30;99.90;19.50;96605.00;;;;5011262;28;20699;-68
2022/09/13 08:12:01;;;;;;;4.03;3.63;;;17.50;99.90;19.70;96606.00;;;;5011125;28;20190;-69
2022/09/13 08:14:50;;;;;;;8.60;3.13;;;17.70;99.90;19.80;96602.00;;;;5017305;28;20229;-68
2022/09/13 08:17:40;;;;;;;6.57;3.43;;;17.80;99.90;19.90;96600.00;;;;5017692;28;20260;-68
2022/09/13 08:20:28;;;;;;;4.43;3.00;;;18.00;99.90;20.10;96588.00;;;;5012861;28;20256;-68
2022/09/13 08:23:17;;;;;;;7.07;3.47;;;18.20;99.90;20.40;96588.00;;;;5020007;28;20295;-68
2022/09/13 08:26:06;;;;;;;4.50;3.30;;;18.30;99.90;20.60;96593.00;;;;5030582;28;20220;-68
2022/09/13 08:29:00;;;;;;;4.43;3.27;;;18.50;99.90;20.70;96587.00;;;;5007351;28;20209;-68
2022/09/13 08:31:49;;;;;;;4.90;3.13;;;18.70;99.90;20.80;96578.00;;;;5019842;28;20693;-68
2022/09/13 08:34:39;;;;;;;6.57;2.80;;;18.80;99.90;21.00;96579.00;;;;5009490;28;20222;-68
2022/09/13 08:37:27;;;;;;;2.93;2.63;;;19.00;99.90;21.30;96592.00;;;;5020126;28;20263;-68
2022/09/13 08:40:16;;;;;;;3.27;2.73;;;19.20;99.90;21.20;96591.00;;;;5010151;28;20906;-68
2022/09/13 08:43:13;;;;;;;4.13;3.50;;;19.40;99.90;21.20;96600.00;;;;5016349;28;20217;-68
2022/09/13 08:46:10;;;;;;;2.63;2.40;;;19.40;99.90;21.40;96597.00;;;;5017834;28;20737;-68
2022/09/13 08:49:05;;;;;;;3.47;3.03;;;19.60;99.90;21.60;96596.00;;;;5012946;28;20618;-68
2022/09/13 08:51:59;;;;;;;5.57;2.80;;;19.70;99.90;21.90;96584.00;;;;5011426;28;20206;-68
2022/09/13 08:54:49;;;;;;;2.87;2.67;;;19.90;99.90;22.20;96592.00;;;;5017305;28;20229;-68
2022/09/13 08:57:46;;;;;;;3.53;2.23;;;20.10;99.90;21.70;96589.00;;;;5016170;28;20209;-68
2022/09/13 09:00:40;;;;;;;3.37;2.50;;;20.20;99.90;22.10;96580.00;;;;5005756;28;20229;-68
2022/09/13 09:03:38;;;;;;;4.20;2.73;;;20.30;99.90;21.80;96577.00;;;;5009788;28;20960;-68
2022/09/13 09:06:28;;;;;;;2.67;2.40;;;20.40;99.90;22.50;96578.00;;;;5011440;28;20272;-68
2022/09/13 09:09:21;;;;;;;5.20;2.33;;;20.50;99.90;22.50;96586.00;;;;5003825;28;20685;-68
2022/09/13 09:12:20;;;;;;;3.10;2.80;;;20.60;99.90;22.20;96593.00;;;;5020533;28;20280;-68
2022/09/13 09:15:16;;;;;;;3.53;2.87;;;20.70;99.90;22.70;96591.00;;;;5015292;28;20302;-68
2022/09/13 09:18:13;;;;;;;3.20;2.30;;;20.80;99.90;23.10;96589.00;;;;5007442;28;20281;-68
2022/09/13 09:21:03;;;;;;;3.23;2.77;;;21.00;99.90;23.20;96580.00;;;;5010027;28;20198;-68
2022/09/13 09:23:54;;;;;;;4.50;2.63;;;21.20;99.90;23.60;96572.00;;;;5015952;28;20202;-67
2022/09/13 09:26:44;;;;;;;4.40;2.13;;;21.30;99.90;24.10;96569.00;;;;4994925;28;20222;-68
2022/09/13 09:29:37;;;;;;;3.07;2.73;;;21.60;99.90;23.60;96570.00;;;;5006076;28;20198;-68
2022/09/13 09:32:59;;;;;;;3.20;2.90;;;21.90;99.90;24.00;96567.00;;;;5008220;28;20202;-68
2022/09/13 09:36:01;;;;;;;3.50;2.60;;;22.00;99.90;23.90;96563.00;;;;5006309;28;20226;-68
2022/09/13 09:38:50;;;;;;;2.77;2.50;;;22.00;99.90;23.70;96573.00;;;;5008067;28;20194;-68
2022/09/13 09:41:38;;;;;;;4.07;2.60;;;22.00;99.90;23.80;96557.00;;;;5016511;28;20247;-68
2022/09/13 09:44:32;;;;;;;3.33;2.63;;;22.10;99.90;24.10;96555.00;;;;5010928;28;20694;-68
2022/09/13 09:47:23;;;;;;;2.60;2.40;;;22.10;99.90;24.10;96558.00;;;;5008975;28;20327;-68
2022/09/13 09:50:17;;;;;;;3.43;2.70;;;22.30;99.90;24.40;96552.00;;;;5010182;28;20194;-68
2022/09/13 09:53:13;;;;;;;4.47;2.67;;;22.40;99.90;24.40;96560.00;;;;5008628;28;20280;-68
2022/09/13 09:56:07;;;;;;;3.50;2.50;;;22.50;99.90;24.60;96558.00;;;;5009772;28;20315;-68
2022/09/13 09:58:55;;;;;;;2.90;2.60;;;22.60;99.90;24.70;96544.00;;;;4995019;28;20627;-68
2022/09/13 10:01:47;;;;;;;2.50;2.30;;;22.70;99.90;24.70;96552.00;;;;5009152;28;20202;-68
2022/09/13 10:04:35;;;;;;;3.70;3.37;;;22.80;99.90;25.00;96546.00;;;;5008528;28;20699;-68
2022/09/13 10:07:31;;;;;;;5.07;2.47;;;22.90;99.90;25.30;96556.00;;;;5004949;28;20202;-68
2022/09/13 10:10:24;;;;;;;4.10;2.73;;;23.00;99.90;25.10;96550.00;;;;5010950;28;20204;-68
2022/09/13 10:13:17;;;;;;;3.83;2.87;;;23.20;99.90;25.10;96548.00;;;;5004164;28;20238;-67
2022/09/13 10:16:21;;;;;;;4.90;3.00;;;23.20;99.90;25.60;96544.00;;;;5014952;28;20234;-68
2022/09/13 10:19:25;;;;;;;4.03;2.67;;;23.40;99.90;26.00;96543.00;;;;5012377;28;20283;-68
2022/09/13 10:22:14;;;;;;;2.30;2.10;;;23.60;99.90;26.40;96543.00;;;;5019132;28;20193;-68
2022/09/13 10:25:17;;;;;;;5.00;2.60;;;23.90;99.90;26.40;96538.00;;;;5008478;28;20232;-68
2022/09/13 10:28:16;;;;;;;6.93;2.67;;;24.10;99.90;27.20;96520.00;;;;5007121;28;20233;-68
2022/09/13 10:31:09;;;;;;;2.47;2.10;;;24.50;99.90;27.30;96514.00;;;;5007835;28;20193;-68
2022/09/13 10:34:02;;;;;;;3.93;2.37;;;24.70;99.40;27.80;96520.00;;;;5008770;28;20200;-68
2022/09/13 10:36:58;;;;;;;2.57;2.30;;;25.10;98.90;27.40;96513.00;;;;5008429;28;20255;-69
2022/09/13 10:39:56;;;;;;;4.63;2.30;;;25.20;97.10;26.80;96531.00;;;;5008086;28;20305;-68
2022/09/13 10:42:53;;;;;;;4.47;2.07;;;25.20;95.30;27.20;96508.00;;;;5011946;28;20209;-70
2022/09/13 10:45:42;;;;;;;2.17;1.97;;;25.10;96.00;27.70;96526.00;;;;5026179;28;20280;-68
2022/09/13 10:48:45;;;;;;;2.73;2.27;;;25.30;95.80;27.50;96507.00;;;;5008020;28;20205;-68
2022/09/13 10:51:37;;;;;;;2.17;1.77;;;25.40;94.70;27.80;96515.00;;;;5007935;28;20682;-67
2022/09/13 10:54:29;;;;;;;2.70;2.20;;;25.40;94.70;27.80;96518.00;;;;4989486;28;20201;-68
2022/09/13 10:57:35;;;;;;;2.60;2.40;;;25.60;94.50;27.80;96508.00;;;;4998597;28;20849;-67
2022/09/13 11:00:31;;;;;;;2.80;1.90;;;25.70;94.20;28.50;96496.00;;;;5008308;28;20194;-68
2022/09/13 11:03:42;;;;;;;2.77;2.17;;;25.90;94.50;28.60;96512.00;;;;5005638;28;20223;-68
2022/09/13 11:06:40;;;;;;;1.90;1.67;;;26.20;93.40;28.60;96501.00;;;;5005957;28;20231;-67
2022/09/13 11:09:36;;;;;;;2.97;2.63;;;26.30;92.70;28.90;96508.00;;;;5007274;28;20251;-68
2022/09/13 11:12:35;;;;;;;2.60;2.40;;;26.50;92.40;29.30;96494.00;;;;5006960;28;20251;-67
2022/09/13 11:15:48;;;;;;;2.60;2.40;;;26.80;92.60;29.60;96496.00;;;;5007693;28;20788;-68
2022/09/13 11:19:10;;;;;;;4.53;2.93;;;27.00;91.60;29.60;96505.00;;;;5008284;28;20217;-68
2022/09/13 11:22:24;;;;;;;2.03;1.83;;;27.30;91.00;29.70;96504.00;;;;5002310;28;20208;-68
2022/09/13 11:25:39;;;;;;;3.07;1.73;;;27.40;91.30;29.20;96493.00;;;;5006298;28;20232;-68
2022/09/13 11:28:43;;;;;;;4.10;2.27;;;27.50;89.40;29.40;96491.00;;;;5007287;28;20684;-68
2022/09/13 11:31:43;;;;;;;2.73;2.30;;;27.40;89.40;28.90;96489.00;;;;4999887;28;20556;-69
2022/09/13 11:34:48;;;;;;;6.43;2.30;;;27.40;85.90;28.90;96484.00;;;;4999656;28;20616;-69
2022/09/13 11:37:49;;;;;;;3.43;3.13;;;27.20;83.40;28.10;96478.00;;;;5007800;28;20589;-69
2022/09/13 11:40:53;;;;;;;2.40;2.20;;;27.00;85.90;28.90;96494.00;;;;5007347;28;20207;-69
2022/09/13 11:44:02;;;;;;;4.77;2.70;;;26.80;87.80;28.30;96498.00;;;;5005960;28;20215;-69
2022/09/13 11:47:04;;;;;;;2.07;1.97;;;26.70;86.80;28.50;96501.00;;;;5005374;28;20239;-69
2022/09/13 11:50:18;;;;;;;3.97;2.00;;;26.60;87.70;28.00;96507.00;;;;5006747;28;20198;-69
2022/09/13 11:53:33;;;;;;;2.60;2.40;;;26.60;87.70;28.10;96495.00;;;;5004332;28;20198;-69
2022/09/13 11:56:28;;;;;;;2.50;2.30;;;26.30;88.30;28.20;96497.00;;;;5002383;28;20316;-68
2022/09/13 11:59:28;;;;;;;2.93;2.33;;;26.30;88.70;28.10;96498.00;;;;4999032;28;20649;-69
2022/09/13 12:02:25;;;;;;;2.50;2.30;;;26.20;88.30;27.00;96500.00;;;;5000426;28;20212;-69
2022/09/13 12:05:20;;;;;;;2.57;1.90;;;26.10;88.10;27.40;96496.00;;;;5010932;28;20225;-69
2022/09/13 12:08:18;;;;;;;2.37;2.17;;;25.90;88.80;27.50;96503.00;;;;5010302;28;20197;-69
2022/09/13 12:11:13;;;;;;;2.40;2.20;;;25.80;89.60;27.60;96484.00;;;;5011939;28;20258;-69
2022/09/13 12:14:07;;;;;;;3.10;2.20;;;25.80;90.30;28.50;96492.00;;;;5008221;28;20616;-69
2022/09/13 12:17:04;;;;;;;2.57;2.17;;;26.00;91.40;29.00;96488.00;;;;5007205;28;20220;-69
2022/09/13 12:19:56;;;;;;;2.37;2.17;;;26.20;91.00;29.20;96488.00;;;;5001432;28;20213;-69
2022/09/13 12:22:47;;;;;;;3.33;2.27;;;26.60;90.50;28.70;96471.00;;;;5001860;28;20209;-68
2022/09/13 12:25:44;;;;;;;3.70;2.40;;;26.80;88.50;29.00;96470.00;;;;5010818;28;20220;-69
2022/09/13 12:28:39;;;;;;;2.43;2.23;;;26.90;88.90;29.20;96485.00;;;;5009630;28;20934;-69
2022/09/13 12:31:32;;;;;;;3.57;2.80;;;26.90;89.60;28.70;96487.00;;;;5001917;28;20200;-69
2022/09/13 12:34:26;;;;;;;2.60;2.40;;;26.90;88.90;28.40;96494.00;;;;5010705;28;20627;-68
2022/09/13 12:37:50;;;;;;;4.20;3.00;;;26.80;87.70;27.80;96485.00;;;;5010518;28;20219;-68
2022/09/13 12:41:09;;;;;;;2.60;2.40;;;26.60;88.30;28.50;96474.00;;;;4998497;28;20209;-69
2022/09/13 12:44:28;;;;;;;3.90;2.63;;;26.50;90.10;28.80;96471.00;;;;5009787;28;20216;-68
2022/09/13 12:47:59;;;;;;;3.23;2.33;;;26.60;89.90;29.40;96465.00;;;;5009523;28;20203;-70
2022/09/13 12:51:06;;;;;;;2.73;2.40;;;26.80;90.20;30.00;96465.00;;;;5006031;28;20200;-69
2022/09/13 12:54:27;;;;;;;4.00;2.73;;;27.20;90.20;30.10;96465.00;;;;5009221;28;20548;-69
2022/09/13 12:57:30;;;;;;;4.30;2.87;;;27.50;89.40;30.40;96470.00;;;;5006708;28;20791;-70